Terminal Aerodrome Forecast
Issued by NWS

Home | Current Version | Previous Version | Text Only | Print | Product List | Glossary On
Versions: 1 2 3 4 5 6 7 8 9 10 11 12
020
FTUS45 KPSR 222328
TAFBLH
TAF
KBLH 222328Z 2300/2324 28016G24KT P6SM SCT220
     FM230800 31012KT P6SM SKC
     FM231800 33014G20KT P6SM SKC=

USA.gov is the U.S. government's official web portal to all federal, state and local government web resources and services.